Aledo, IL

12:34 AM CST on January 28, 2015 (GMT -0600)
APRSWXNET Milan IL US | Change Station
CLOSE
Current Station
Personal Weather Station
Location: Milan, IL
Elevation: 652 ft
Nearby Weather Stations

Elev 652 ft 41.42 °N, 90.55 °W | Updated 31 minutes ago

Overcast
Overcast
29 °F
Feels Like 29 °F
N
0
Wind Variable Wind from ESE
Gusts 4.0 mph

Today
High -- | Low -- °F
--% Chance of Precip.
Yesterday
High -- | Low -- °F
Precip. -- in
7:17 AM 5:14 PM
First Quarter, 61% visible
Pressure 30.27 in
Visibility 8.0 miles
Clouds Overcast 1200 ft
Windchill 29 °F
Dew Point 23 °F
Humidity 79%
Rainfall 0.00 in
Snow Depth Not available.
UV 0 out of 12
Pollen .10 out of 12
Air Quality Not available.
Flu Activity Not available.
METAR KMLI 280552Z AUTO 16005KT 8SM OVC012 M03/M06 A3024 RMK AO2 SLP249 T10281056 11022 21028 400221028 50004

More Conditions Fewer Conditions

Pressure 30.27 in
Visibility 8.0 miles
Clouds Overcast 1200 ft
Windchill 29 °F
Dew Point 23 °F
Humidity 79%
Rainfall 0.00 in
Snow Depth Not available.
UV 0 out of 12
Pollen .10 out of 12
Air Quality Not available.
Flu Activity Not available.
METAR KMLI 280552Z AUTO 16005KT 8SM OVC012 M03/M06 A3024 RMK AO2 SLP249 T10281056 11022 21028 400221028 50004

More Conditions Fewer Conditions

10-Day Weather Forecast

Almanac

Astronomy

Jan. 28, 2015 Rise Set
Actual Time
Civil Twilight
Nautical Twilight
Astronomical Twilight
Moon
Length of Visible Light
Length of Day
Tomorrow will be .
, % of the Moon is Illuminated

Today's Extremes

State Highs State Lows

Community

WunderPhotos

Upload Photos

1,791,112 photos uploaded!

WunderBlogs® & News

Nearby

Air Quality

  Air Quality AQ Index Pollutant
Not available.

Snow Depth

Station Depth Elevation

Earthquake Activity

City Distance Mag. Time & Date
Minimum magnitude displayed is 2.5.

Coastal Water Temperatures

Place Temperature

Nearby Weather Stations